CLD2 weather

Public forecast

Using degrees Celsius for public forecast. Weather courtesy of forecast.io.

Closest aviation weather report (METAR) to Edmonton / Leduc Heliport

Closest report is Edmonton International Airport, 3.6 nm (6.8 km) NNW. Retrieved 2020/08/11 13:00 UTC (24 minutes ago):

CYEG 111300Z 20004KT 20SM FEW110 SCT200 SCT230 04/04 A2989 RMK AC2CC1CI1 SLP134

Closest aviation forecast (TAF) to Edmonton / Leduc Heliport

Closest forecast is Edmonton International Airport, 3.6 nm (6.8 km) NNW. Retrieved 2020/08/11 12:39 UTC (45 minutes ago):

TAF CYEG 111138Z 1112/1212 VRB03KT P6SM SCT110 FM111700 14008KT P6SM SCT060 BKN100 FM112100 14012G22KT P6SM SCT050 BKN250 PROB30 1121/1202 VRB20G35KT 4SM TSRA BKN040CB FM120200 16010KT P6SM FEW040 SCT230 TEMPO 1202/1206 P6SM VCTS SCT040CB BECMG 1203/1205 VRB03KT FM120600 VRB03KT P6SM -SHRA SCT012 BKN030 BECMG 1208/1210 32010G20KT RMK NXT FCST BY 111500Z